Energy Champion — MJUZ7 — position and weather

sailwx.info

Track history (hours):
 
Tides and Currents Weather Stations Pressure Air Temp Water Temp Dewpoint Dewpoint Depression Visibility Wind Speed Wind Dir Waves Ship Positions

Energy Champion

Last reported at 2017-Jan-17 08:14 UTC. Time now 2017-Jan-20 05:51 UTC.
Position N 40°20' W 073°42'.

Length 228 m; draft 8.1 m.

Type: Tanker. MMSI: 235009420.

Date/timePositionNaut miles runAvg speedWind from/ knotsBaromVisibWave heightAir tempDewpointWater temp
2017-Jan-17 08:14N 40°20' W 073°42'7 9.7
2017-Jan-17 07:33N 40°25' W 073°47'9 9.2
2017-Jan-17 06:33N 40°30' W 073°57'9 8.5
2017-Jan-17 05:31N 40°38' W 074°04'0 0.0
2017-Jan-17 04:31N 40°38' W 074°04'0 0.0
2017-Jan-17 03:31N 40°38' W 074°04'0 0.0
2017-Jan-17 02:31N 40°38' W 074°04'0 0.1
2017-Jan-17 01:31N 40°38' W 074°03'0 0.1
2017-Jan-17 00:31N 40°37' W 074°04'0 0.1
2017-Jan-16 23:31N 40°37' W 074°04'0 0.1
2017-Jan-16 22:33N 40°37' W 074°04'7 7.0
2017-Jan-16 21:33N 40°30' W 074°03'8 7.5
2017-Jan-16 20:27N 40°30' W 074°14'4 4.3
2017-Jan-16 19:33N 40°33' W 074°13'5 0.2
2017-Jan-15 23:32N 40°38' W 074°12'0 0.0
2017-Jan-15 16:11N 40°38' W 074°12'0 0.0
2017-Jan-15 15:32N 40°38' W 074°12'0 0.1
2017-Jan-15 14:33N 40°38' W 074°12'5 5.2
2017-Jan-15 13:34N 40°39' W 074°05'8 7.6
2017-Jan-15 12:33N 40°32' W 074°01'1110.7
2017-Jan-15 11:33N 40°27' W 073°48'5 5.4
2017-Jan-15 10:32N 40°27' W 073°41'4 2.9
2017-Jan-15 09:04N 40°29' W 073°36'0 0.0
2017-Jan-15 07:13N 40°29' W 073°36'0 0.0
2017-Jan-14 19:16N 40°29' W 073°36'0 0.0
2017-Jan-13 18:28N 40°29' W 073°36'0 0.0
2017-Jan-12 01:13N 40°29' W 073°36'0 0.0
2017-Jan-12 00:10N 40°29' W 073°36'5 0.1
2017-Jan-10 03:33N 40°29' W 073°42'8 7.9
2017-Jan-10 02:33N 40°28' W 073°53'1010.5
2017-Jan-10 01:33N 40°36' W 074°02'1 1.2
2017-Jan-10 00:32N 40°37' W 074°03'0 0.1
2017-Jan-09 23:32N 40°37' W 074°03'0 0.0
2017-Jan-09 22:32N 40°37' W 074°03'0 0.0
2017-Jan-09 21:32N 40°37' W 074°03'0 0.0
2017-Jan-09 20:32N 40°37' W 074°03'0 0.1
2017-Jan-09 19:32N 40°37' W 074°03'0 0.2
2017-Jan-09 18:32N 40°37' W 074°03'0 0.0
2017-Jan-09 17:32N 40°37' W 074°03'0 0.1
2017-Jan-09 16:32N 40°37' W 074°03'0 0.0
2017-Jan-09 15:32N 40°37' W 074°03'0 0.0
2017-Jan-09 14:32N 40°37' W 074°03'0 0.0
2017-Jan-09 13:32N 40°37' W 074°03'0 0.0
2017-Jan-09 12:32N 40°37' W 074°03'0 0.2
2017-Jan-09 11:32N 40°37' W 074°03'0 0.0
2017-Jan-09 10:32N 40°37' W 074°03'0 0.0
2017-Jan-09 09:32N 40°37' W 074°03'0 0.0
2017-Jan-09 08:33N 40°37' W 074°03'0 0.0
2017-Jan-09 07:33N 40°37' W 074°03'0 0.2
2017-Jan-09 06:33N 40°37' W 074°03'0 0.2
2017-Jan-09 05:33N 40°37' W 074°03'0 0.0
2017-Jan-09 04:33N 40°37' W 074°03'0 0.1
2017-Jan-09 03:33N 40°36' W 074°03'0 0.0
2017-Jan-09 02:33N 40°36' W 074°03'0 0.0
2017-Jan-09 01:30N 40°36' W 074°03'0 0.0
2017-Jan-09 00:33N 40°36' W 074°03'0 0.0
2017-Jan-08 23:33N 40°37' W 074°03'0 0.3
2017-Jan-08 22:33N 40°37' W 074°03'0 0.0
2017-Jan-08 21:33N 40°37' W 074°03'0 0.0
2017-Jan-08 20:33N 40°37' W 074°03'0 0.1
2017-Jan-08 19:33N 40°37' W 074°03'0 0.3
2017-Jan-08 18:33N 40°37' W 074°03'0 0.1
2017-Jan-08 17:33N 40°37' W 074°03'0 0.0
2017-Jan-08 16:33N 40°37' W 074°03'0 0.1
2017-Jan-08 15:33N 40°36' W 074°03'0 0.0
2017-Jan-08 14:33N 40°36' W 074°03'0 0.0
2017-Jan-08 13:33N 40°36' W 074°03'0 0.0
2017-Jan-08 12:33N 40°37' W 074°03'0 0.2
2017-Jan-08 11:33N 40°37' W 074°03'0 0.2
2017-Jan-08 10:33N 40°37' W 074°03'0 0.0
2017-Jan-08 09:33N 40°37' W 074°03'0 0.0
2017-Jan-08 08:33N 40°37' W 074°03'0 0.0
2017-Jan-08 07:33N 40°37' W 074°03'0 0.1
2017-Jan-08 06:33N 40°37' W 074°03'0 0.2
2017-Jan-08 05:33N 40°37' W 074°03'0 0.3
2017-Jan-08 04:33N 40°37' W 074°03'0 0.0
2017-Jan-08 03:33N 40°37' W 074°03'0 0.0
2017-Jan-08 02:33N 40°36' W 074°03'0 0.0
2017-Jan-08 01:33N 40°36' W 074°03'0 0.0
2017-Jan-08 00:33N 40°36' W 074°03'0 0.0
2017-Jan-07 23:30N 40°36' W 074°03'0 0.1
2017-Jan-07 22:34N 40°36' W 074°03'4 3.8
2017-Jan-07 21:33N 40°33' W 074°01'7 7.4
2017-Jan-07 20:33N 40°29' W 073°53'8 7.5
2017-Jan-07 19:33N 40°27' W 073°44'  
Track history (hours):
 
Tides and Currents Weather Stations Pressure Air Temp Water Temp Dewpoint Dewpoint Depression Visibility Wind Speed Wind Dir Waves Ship Positions

Energy Champion

Last reported at 2017-Jan-17 08:14 UTC. Time now 2017-Jan-20 05:51 UTC.
Position N 40°20' W 073°42'.

Length 228 m; draft 8.1 m.

Type: Tanker. MMSI: 235009420.

Date/timePositionNaut miles runAvg speedWind from/ knotsBaromVisibWave heightAir tempDewpointWater temp
2017-Jan-17 08:14N 40°20' W 073°42'7 9.7
2017-Jan-17 07:33N 40°25' W 073°47'9 9.2
2017-Jan-17 06:33N 40°30' W 073°57'9 8.5
2017-Jan-17 05:31N 40°38' W 074°04'0 0.0
2017-Jan-17 04:31N 40°38' W 074°04'0 0.0
2017-Jan-17 03:31N 40°38' W 074°04'0 0.0
2017-Jan-17 02:31N 40°38' W 074°04'0 0.1
2017-Jan-17 01:31N 40°38' W 074°03'0 0.1
2017-Jan-17 00:31N 40°37' W 074°04'0 0.1
2017-Jan-16 23:31N 40°37' W 074°04'0 0.1
2017-Jan-16 22:33N 40°37' W 074°04'7 7.0
2017-Jan-16 21:33N 40°30' W 074°03'8 7.5
2017-Jan-16 20:27N 40°30' W 074°14'4 4.3
2017-Jan-16 19:33N 40°33' W 074°13'5 0.2
2017-Jan-15 23:32N 40°38' W 074°12'0 0.0
2017-Jan-15 16:11N 40°38' W 074°12'0 0.0
2017-Jan-15 15:32N 40°38' W 074°12'0 0.1
2017-Jan-15 14:33N 40°38' W 074°12'5 5.2
2017-Jan-15 13:34N 40°39' W 074°05'8 7.6
2017-Jan-15 12:33N 40°32' W 074°01'1110.7
2017-Jan-15 11:33N 40°27' W 073°48'5 5.4
2017-Jan-15 10:32N 40°27' W 073°41'4 2.9
2017-Jan-15 09:04N 40°29' W 073°36'0 0.0
2017-Jan-15 07:13N 40°29' W 073°36'0 0.0
2017-Jan-14 19:16N 40°29' W 073°36'0 0.0
2017-Jan-13 18:28N 40°29' W 073°36'0 0.0
2017-Jan-12 01:13N 40°29' W 073°36'0 0.0
2017-Jan-12 00:10N 40°29' W 073°36'5 0.1
2017-Jan-10 03:33N 40°29' W 073°42'8 7.9
2017-Jan-10 02:33N 40°28' W 073°53'1010.5
2017-Jan-10 01:33N 40°36' W 074°02'1 1.2
2017-Jan-10 00:32N 40°37' W 074°03'0 0.1
2017-Jan-09 23:32N 40°37' W 074°03'0 0.0
2017-Jan-09 22:32N 40°37' W 074°03'0 0.0
2017-Jan-09 21:32N 40°37' W 074°03'0 0.0
2017-Jan-09 20:32N 40°37' W 074°03'0 0.1
2017-Jan-09 19:32N 40°37' W 074°03'0 0.2
2017-Jan-09 18:32N 40°37' W 074°03'0 0.0
2017-Jan-09 17:32N 40°37' W 074°03'0 0.1
2017-Jan-09 16:32N 40°37' W 074°03'0 0.0
2017-Jan-09 15:32N 40°37' W 074°03'0 0.0
2017-Jan-09 14:32N 40°37' W 074°03'0 0.0
2017-Jan-09 13:32N 40°37' W 074°03'0 0.0
2017-Jan-09 12:32N 40°37' W 074°03'0 0.2
2017-Jan-09 11:32N 40°37' W 074°03'0 0.0
2017-Jan-09 10:32N 40°37' W 074°03'0 0.0
2017-Jan-09 09:32N 40°37' W 074°03'0 0.0
2017-Jan-09 08:33N 40°37' W 074°03'0 0.0
2017-Jan-09 07:33N 40°37' W 074°03'0 0.2
2017-Jan-09 06:33N 40°37' W 074°03'0 0.2
2017-Jan-09 05:33N 40°37' W 074°03'0 0.0
2017-Jan-09 04:33N 40°37' W 074°03'0 0.1
2017-Jan-09 03:33N 40°36' W 074°03'0 0.0
2017-Jan-09 02:33N 40°36' W 074°03'0 0.0
2017-Jan-09 01:30N 40°36' W 074°03'0 0.0
2017-Jan-09 00:33N 40°36' W 074°03'0 0.0
2017-Jan-08 23:33N 40°37' W 074°03'0 0.3
2017-Jan-08 22:33N 40°37' W 074°03'0 0.0
2017-Jan-08 21:33N 40°37' W 074°03'0 0.0
2017-Jan-08 20:33N 40°37' W 074°03'0 0.1
2017-Jan-08 19:33N 40°37' W 074°03'0 0.3
2017-Jan-08 18:33N 40°37' W 074°03'0 0.1
2017-Jan-08 17:33N 40°37' W 074°03'0 0.0
2017-Jan-08 16:33N 40°37' W 074°03'0 0.1
2017-Jan-08 15:33N 40°36' W 074°03'0 0.0
2017-Jan-08 14:33N 40°36' W 074°03'0 0.0
2017-Jan-08 13:33N 40°36' W 074°03'0 0.0
2017-Jan-08 12:33N 40°37' W 074°03'0 0.2
2017-Jan-08 11:33N 40°37' W 074°03'0 0.2
2017-Jan-08 10:33N 40°37' W 074°03'0 0.0
2017-Jan-08 09:33N 40°37' W 074°03'0 0.0
2017-Jan-08 08:33N 40°37' W 074°03'0 0.0
2017-Jan-08 07:33N 40°37' W 074°03'0 0.1
2017-Jan-08 06:33N 40°37' W 074°03'0 0.2
2017-Jan-08 05:33N 40°37' W 074°03'0 0.3
2017-Jan-08 04:33N 40°37' W 074°03'0 0.0
2017-Jan-08 03:33N 40°37' W 074°03'0 0.0
2017-Jan-08 02:33N 40°36' W 074°03'0 0.0
2017-Jan-08 01:33N 40°36' W 074°03'0 0.0
2017-Jan-08 00:33N 40°36' W 074°03'0 0.0
2017-Jan-07 23:30N 40°36' W 074°03'0 0.1
2017-Jan-07 22:34N 40°36' W 074°03'4 3.8
2017-Jan-07 21:33N 40°33' W 074°01'7 7.4
2017-Jan-07 20:33N 40°29' W 073°53'8 7.5
2017-Jan-07 19:33N 40°27' W 073°44'  

Dump ship's entire track history